Time;durP1;ratioP1;P1;durP2;ratioP2;P2;SDS_P1;SDS_P2;PMS_P1;PMS_P2;Temp;Humidity;BMP_temperature;BMP_pressure;BME280_temperature;BME280_humidity;BME280_pressure;Samples;Min_cycle;Max_cycle;Signal;HPM_P1;HPM_P2
2022/02/01 00:01:35;;;;;;;9.65;7.67;;;22.90;84.30;;;;;;1919494;73;21050;-81
2022/02/01 00:04:05;;;;;;;11.75;7.20;;;22.90;84.40;;;;;;1902818;73;22236;-81
2022/02/01 00:09:15;;;;;;;10.82;7.30;;;22.80;84.00;;;;;;1910033;73;21158;-81
2022/02/01 00:11:51;;;;;;;10.90;6.60;;;22.80;84.10;;;;;;1904148;73;21110;-80
2022/02/01 00:37:02;;;;;;;10.88;6.85;;;22.80;83.50;;;;;;1912665;73;21135;-81
2022/02/01 00:39:31;;;;;;;9.40;7.15;;;22.80;83.70;;;;;;1901040;72;21952;-81
2022/02/01 00:42:01;;;;;;;11.75;7.33;;;22.90;83.80;;;;;;1859083;75;21107;-81
2022/02/01 00:44:32;;;;;;;10.25;7.30;;;22.90;83.40;;;;;;1901990;73;21161;-81
2022/02/01 00:47:02;;;;;;;10.23;6.80;;;22.90;83.20;;;;;;1920104;73;21155;-80
2022/02/01 00:49:35;;;;;;;10.13;7.00;;;22.90;82.80;;;;;;1917055;73;21127;-81
2022/02/01 00:52:06;;;;;;;10.13;6.83;;;22.90;83.00;;;;;;1909306;73;21666;-80
2022/02/01 00:54:41;;;;;;;12.15;7.45;;;22.90;83.00;;;;;;1902615;73;21178;-80
2022/02/01 00:57:12;;;;;;;15.88;6.90;;;22.90;82.70;;;;;;1916788;73;21127;-81
2022/02/01 00:59:43;;;;;;;10.20;6.58;;;22.90;82.40;;;;;;1904025;73;21047;-82
2022/02/01 01:02:13;;;;;;;12.45;7.40;;;22.90;82.40;;;;;;1859287;75;21186;-80
2022/02/01 01:04:44;;;;;;;10.85;7.75;;;22.90;82.10;;;;;;1904342;73;21145;-81
2022/02/01 01:07:15;;;;;;;9.20;7.15;;;22.90;81.80;;;;;;1908680;73;21162;-81
2022/02/01 01:09:46;;;;;;;10.35;6.67;;;22.90;82.00;;;;;;1894857;74;21178;-82
2022/02/01 01:12:17;;;;;;;13.43;7.33;;;22.90;81.80;;;;;;1907820;73;21119;-81
2022/02/01 01:45:19;;;;;;;12.60;7.70;;;23.20;82.00;;;;;;1918764;74;21118;-79
2022/02/01 01:55:27;;;;;;;11.95;7.47;;;23.30;81.40;;;;;;1908589;73;21648;-80
2022/02/01 01:58:01;;;;;;;11.97;8.30;;;23.30;81.50;;;;;;1928210;73;21224;-80
2022/02/01 02:03:06;;;;;;;13.68;8.75;;;23.40;81.70;;;;;;1896778;74;21125;-82
2022/02/01 02:05:37;;;;;;;12.95;8.60;;;23.40;81.60;;;;;;1907635;74;21169;-82
2022/02/01 02:08:08;;;;;;;12.37;8.35;;;23.50;81.50;;;;;;1909978;73;21134;-81
2022/02/01 02:10:50;;;;;;;14.70;8.73;;;23.50;81.10;;;;;;1914419;73;21164;-83
2022/02/01 02:15:50;;;;;;;11.90;8.60;;;23.70;80.80;;;;;;1908036;73;21115;-82
2022/02/01 02:18:16;;;;;;;12.25;7.80;;;23.70;80.70;;;;;;1919830;73;21076;-82
2022/02/01 02:20:49;;;;;;;12.53;8.15;;;23.80;80.50;;;;;;1908592;73;21097;-82
2022/02/01 02:23:21;;;;;;;11.25;7.95;;;23.90;80.40;;;;;;1873628;75;21225;-81
2022/02/01 02:25:52;;;;;;;14.85;8.55;;;23.90;80.30;;;;;;1896999;73;21193;-83
2022/02/01 02:28:24;;;;;;;13.83;8.88;;;24.00;80.10;;;;;;1902145;73;21078;-82
2022/02/01 02:30:54;;;;;;;13.58;8.65;;;24.00;80.00;;;;;;1911584;75;21209;-82
2022/02/01 02:33:25;;;;;;;12.58;8.48;;;24.10;79.80;;;;;;1908993;73;21626;-85
2022/02/01 02:36:04;;;;;;;12.70;8.73;;;24.10;79.80;;;;;;1868393;75;21169;-84
2022/02/01 02:46:10;;;;;;;13.25;8.70;;;24.20;79.60;;;;;;1915887;73;21127;-84
2022/02/01 02:48:41;;;;;;;14.68;8.93;;;24.30;79.50;;;;;;1920782;73;21111;-84
2022/02/01 02:51:12;;;;;;;14.63;8.40;;;24.30;79.30;;;;;;1912845;73;21799;-82
2022/02/01 02:53:43;;;;;;;15.60;9.70;;;24.40;79.30;;;;;;1913123;73;21126;-82
2022/02/01 02:56:14;;;;;;;13.83;9.88;;;24.40;79.10;;;;;;1916064;73;21103;-83
2022/02/01 02:58:46;;;;;;;12.13;8.68;;;24.40;79.20;;;;;;1917673;73;21036;-82
2022/02/01 03:01:17;;;;;;;27.50;16.70;;;24.40;79.40;;;;;;1913604;73;21134;-82
2022/02/01 03:03:48;;;;;;;13.13;8.88;;;24.50;79.20;;;;;;1908530;73;21111;-82
2022/02/01 03:06:19;;;;;;;14.78;10.38;;;24.50;78.80;;;;;;1917113;73;21142;-81
2022/02/01 03:08:50;;;;;;;23.85;16.25;;;24.60;78.90;;;;;;1884317;75;21126;-77
2022/02/01 03:11:20;;;;;;;18.07;15.32;;;24.60;78.80;;;;;;1918695;74;21104;-76
2022/02/01 03:13:56;;;;;;;18.67;11.83;;;24.70;78.70;;;;;;1917868;73;21194;-77
2022/02/01 03:21:26;;;;;;;14.90;9.73;;;24.80;78.10;;;;;;1841484;76;21607;-75
2022/02/01 03:23:57;;;;;;;14.65;9.83;;;24.80;78.40;;;;;;1908747;73;21583;-77
2022/02/01 03:26:28;;;;;;;15.15;9.73;;;24.90;78.40;;;;;;1906530;73;21677;-79
2022/02/01 03:28:59;;;;;;;14.25;9.40;;;25.00;78.20;;;;;;1902817;73;21559;-77
2022/02/01 03:31:30;;;;;;;17.50;10.10;;;25.00;78.00;;;;;;1916460;73;21158;-76
2022/02/01 03:34:00;;;;;;;14.33;9.95;;;25.10;78.20;;;;;;1914361;73;21146;-77
2022/02/01 03:36:31;;;;;;;15.35;10.32;;;25.20;77.90;;;;;;1912118;73;21563;-76
2022/02/01 03:39:02;;;;;;;16.07;9.13;;;25.20;77.60;;;;;;1916589;73;21142;-78
2022/02/01 03:41:33;;;;;;;15.03;10.48;;;25.20;77.80;;;;;;1918529;73;21713;-77
2022/02/01 03:44:06;;;;;;;13.62;9.55;;;25.30;77.90;;;;;;1919760;73;21598;-76
2022/02/01 03:46:36;;;;;;;13.28;10.00;;;25.40;77.60;;;;;;1913971;73;21911;-77
2022/02/01 03:49:07;;;;;;;15.88;9.75;;;25.50;77.60;;;;;;1913420;73;21107;-77
2022/02/01 03:51:38;;;;;;;17.85;10.28;;;25.60;77.10;;;;;;1915014;73;21492;-77
2022/02/01 03:54:09;;;;;;;17.70;10.32;;;25.70;77.00;;;;;;1903881;73;21617;-76
2022/02/01 03:56:39;;;;;;;15.48;10.58;;;25.70;76.70;;;;;;1898296;74;21704;-78
2022/02/01 03:59:10;;;;;;;15.65;10.60;;;25.70;76.60;;;;;;1922567;73;21111;-77
2022/02/01 04:01:42;;;;;;;14.10;10.18;;;25.80;76.60;;;;;;1898659;73;21252;-75
2022/02/01 04:04:14;;;;;;;16.17;10.78;;;25.90;76.20;;;;;;1880668;75;21165;-76
2022/02/01 04:06:45;;;;;;;15.15;11.63;;;26.00;76.40;;;;;;1913343;73;21123;-76
2022/02/01 04:09:16;;;;;;;15.80;10.95;;;26.10;76.40;;;;;;1894613;74;21554;-76
2022/02/01 04:11:47;;;;;;;23.22;11.95;;;26.30;76.20;;;;;;1916356;74;21606;-76
2022/02/01 04:14:21;;;;;;;14.83;10.70;;;26.40;75.50;;;;;;1883781;75;21636;-77
2022/02/01 04:16:54;;;;;;;17.42;10.70;;;26.50;75.20;;;;;;1918857;73;21106;-76
2022/02/01 04:19:28;;;;;;;15.38;11.75;;;26.60;75.30;;;;;;1919747;74;21079;-76
2022/02/01 04:22:02;;;;;;;15.03;10.72;;;26.70;74.70;;;;;;1914055;74;21068;-75
2022/02/01 04:24:31;;;;;;;16.50;11.88;;;26.80;74.80;;;;;;1903805;75;21068;-77
2022/02/01 04:27:02;;;;;;;16.60;11.63;;;26.90;74.60;;;;;;1884405;75;21115;-75
2022/02/01 04:29:35;;;;;;;17.77;11.12;;;27.00;74.20;;;;;;1910558;74;21582;-77
2022/02/01 04:32:06;;;;;;;15.83;11.38;;;27.10;73.80;;;;;;1913550;74;21646;-76
2022/02/01 04:34:37;;;;;;;14.20;11.08;;;27.10;73.90;;;;;;1910799;73;21213;-77
2022/02/01 04:37:08;;;;;;;17.55;11.97;;;27.20;74.60;;;;;;1917695;73;21539;-75
2022/02/01 04:39:39;;;;;;;16.85;11.55;;;27.30;73.60;;;;;;1909834;74;21096;-75
2022/02/01 04:42:10;;;;;;;15.45;11.05;;;27.40;73.40;;;;;;1919585;73;21536;-78
2022/02/01 04:44:41;;;;;;;17.98;11.70;;;27.50;72.60;;;;;;1915105;73;21131;-75
2022/02/01 04:47:12;;;;;;;15.98;11.45;;;27.70;72.70;;;;;;1866317;75;22034;-76
2022/02/01 04:49:43;;;;;;;16.23;11.00;;;27.70;71.90;;;;;;1909077;73;21545;-76
2022/02/01 04:52:15;;;;;;;18.23;12.28;;;27.80;71.80;;;;;;1866368;75;21236;-77
2022/02/01 04:54:47;;;;;;;16.60;12.68;;;27.90;72.00;;;;;;1902322;74;21153;-77
2022/02/01 04:57:18;;;;;;;18.10;12.90;;;27.90;71.80;;;;;;1860227;76;21610;-75
2022/02/01 04:59:49;;;;;;;16.87;12.65;;;28.00;71.80;;;;;;1921826;73;21107;-76
2022/02/01 05:02:19;;;;;;;16.80;12.60;;;28.10;71.60;;;;;;1919406;73;21104;-76
2022/02/01 05:04:51;;;;;;;17.77;12.07;;;28.10;71.30;;;;;;1886816;73;21704;-76
2022/02/01 05:07:22;;;;;;;19.15;12.82;;;28.10;70.80;;;;;;1871104;75;21150;-76
2022/02/01 05:09:57;;;;;;;14.95;11.78;;;28.20;70.80;;;;;;1915157;74;21099;-76
2022/02/01 05:12:28;;;;;;;17.35;13.30;;;28.30;70.60;;;;;;1916710;73;21605;-76
2022/02/01 05:14:57;;;;;;;20.88;13.48;;;28.40;70.70;;;;;;1910837;73;21610;-76
2022/02/01 05:17:28;;;;;;;16.97;12.58;;;28.40;70.50;;;;;;1874876;75;21203;-76
2022/02/01 05:20:08;;;;;;;18.90;12.45;;;28.50;70.30;;;;;;1934535;73;21135;-79
2022/02/01 05:22:32;;;;;;;15.70;11.55;;;28.50;70.00;;;;;;1914086;73;21638;-75
2022/02/01 05:25:03;;;;;;;17.32;12.55;;;28.50;70.00;;;;;;1923749;74;21171;-76
2022/02/01 05:27:34;;;;;;;22.02;13.35;;;28.60;70.20;;;;;;1910236;74;21516;-76
2022/02/01 05:30:06;;;;;;;20.80;12.73;;;28.60;70.20;;;;;;1870336;76;21222;-76
2022/02/01 05:32:37;;;;;;;19.62;13.03;;;28.70;69.70;;;;;;1918782;73;21100;-75
2022/02/01 05:35:08;;;;;;;18.48;13.10;;;28.70;69.50;;;;;;1915491;73;21532;-75
2022/02/01 05:37:39;;;;;;;18.52;13.43;;;28.70;69.90;;;;;;1902054;73;21162;-75
2022/02/01 05:40:11;;;;;;;18.75;12.90;;;28.80;69.60;;;;;;1876676;73;21672;-76
2022/02/01 05:43:05;;;;;;;17.90;13.38;;;28.80;69.70;;;;;;1890875;74;21178;-76
2022/02/01 05:45:15;;;;;;;21.90;14.20;;;28.80;69.60;;;;;;1903901;73;22011;-76
2022/02/01 05:47:46;;;;;;;16.15;12.55;;;28.80;69.30;;;;;;1884962;75;21677;-75
2022/02/01 05:50:17;;;;;;;15.88;13.40;;;28.70;69.50;;;;;;1911741;74;21044;-75
2022/02/01 05:52:48;;;;;;;18.65;12.78;;;28.80;69.90;;;;;;1868443;76;21210;-76
2022/02/01 05:55:18;;;;;;;17.15;12.78;;;28.90;69.70;;;;;;1920079;73;21512;-76
2022/02/01 05:57:51;;;;;;;22.75;14.43;;;29.00;69.50;;;;;;1905833;73;22415;-75
2022/02/01 06:00:23;;;;;;;18.40;12.55;;;28.90;69.00;;;;;;1921912;73;21080;-77
2022/02/01 06:02:54;;;;;;;17.07;12.80;;;28.80;69.30;;;;;;1906892;74;21123;-76
2022/02/01 06:05:25;;;;;;;17.35;12.73;;;28.90;69.30;;;;;;1915839;73;21259;-77
2022/02/01 06:07:57;;;;;;;19.42;13.20;;;29.00;69.40;;;;;;1912288;74;21499;-76
2022/02/01 06:10:29;;;;;;;19.70;14.00;;;29.10;69.00;;;;;;1902480;73;21048;-75
2022/02/01 06:13:01;;;;;;;15.58;12.88;;;29.30;68.80;;;;;;1909856;74;21516;-77
2022/02/01 06:15:34;;;;;;;17.10;12.90;;;29.40;68.30;;;;;;1913636;73;21174;-75
2022/02/01 06:18:05;;;;;;;18.27;13.10;;;29.40;67.80;;;;;;1940506;74;21122;-77
2022/02/01 06:20:36;;;;;;;16.75;12.75;;;29.40;68.10;;;;;;1931527;74;21177;-75
2022/02/01 06:23:09;;;;;;;15.45;11.85;;;29.40;68.40;;;;;;1910759;74;21123;-76
2022/02/01 06:25:53;;;;;;;15.85;12.78;;;29.30;68.30;;;;;;1908658;74;21110;-75
2022/02/01 06:28:12;;;;;;;16.70;12.45;;;29.30;68.80;;;;;;1901740;74;21664;-76
2022/02/01 06:30:43;;;;;;;15.23;11.88;;;29.30;68.30;;;;;;1907535;73;21899;-75
2022/02/01 06:33:15;;;;;;;17.15;13.18;;;29.30;68.60;;;;;;1886891;75;21148;-75
2022/02/01 06:35:46;;;;;;;17.45;12.98;;;29.40;68.30;;;;;;1916185;73;21126;-75
2022/02/01 06:38:17;;;;;;;16.82;13.10;;;29.40;68.40;;;;;;1918303;73;21138;-76
2022/02/01 06:40:49;;;;;;;15.70;12.05;;;29.50;68.10;;;;;;1916718;74;21142;-75
2022/02/01 06:43:20;;;;;;;17.25;12.73;;;29.60;68.10;;;;;;1945150;73;21139;-76
2022/02/01 06:45:50;;;;;;;14.73;12.68;;;29.60;67.70;;;;;;1946025;73;21131;-75
2022/02/01 06:48:21;;;;;;;16.25;12.75;;;29.70;67.30;;;;;;1945324;73;21616;-75
2022/02/01 06:50:53;;;;;;;17.12;12.35;;;29.80;67.10;;;;;;1945617;73;22388;-76
2022/02/01 06:53:24;;;;;;;18.20;12.82;;;29.80;66.90;;;;;;1945143;74;21640;-77
2022/02/01 06:56:19;;;;;;;16.93;12.55;;;29.70;66.60;;;;;;1940732;74;21559;-76
2022/02/01 06:58:27;;;;;;;17.80;12.58;;;29.60;67.10;;;;;;1937633;74;21115;-76
2022/02/01 07:00:58;;;;;;;17.02;13.05;;;29.50;67.30;;;;;;1911841;73;21894;-76
2022/02/01 07:03:30;;;;;;;17.45;13.65;;;29.40;66.80;;;;;;1908223;74;21111;-77
2022/02/01 07:06:01;;;;;;;21.40;16.02;;;29.30;68.10;;;;;;1917438;73;21107;-76
2022/02/01 07:08:32;;;;;;;17.23;12.80;;;29.30;68.30;;;;;;1919545;74;21108;-77
2022/02/01 07:11:03;;;;;;;17.25;12.80;;;29.30;68.30;;;;;;1914047;73;21244;-76
2022/02/01 07:13:34;;;;;;;16.60;12.58;;;29.20;68.10;;;;;;1918890;74;21131;-77
2022/02/01 07:16:06;;;;;;;17.75;12.63;;;29.30;67.90;;;;;;1919427;74;21610;-77
2022/02/01 07:18:37;;;;;;;16.87;12.78;;;29.30;68.30;;;;;;1894342;75;21497;-77
2022/02/01 07:21:09;;;;;;;16.35;12.03;;;29.40;67.90;;;;;;1926654;74;21049;-77
2022/02/01 07:23:41;;;;;;;14.93;12.55;;;29.40;67.40;;;;;;1925552;73;21115;-77
2022/02/01 07:26:11;;;;;;;17.25;13.08;;;29.50;67.40;;;;;;1917908;74;21045;-77
2022/02/01 07:28:42;;;;;;;15.55;13.10;;;29.50;66.80;;;;;;1915030;73;21120;-77
2022/02/01 07:31:13;;;;;;;19.37;12.78;;;29.50;66.50;;;;;;1916277;74;21135;-77
2022/02/01 07:33:44;;;;;;;18.82;12.95;;;29.60;67.00;;;;;;1918651;74;21180;-76
2022/02/01 07:36:17;;;;;;;17.87;12.58;;;29.60;66.90;;;;;;1909143;74;21819;-76
2022/02/01 07:38:48;;;;;;;17.87;12.93;;;29.80;66.90;;;;;;1922007;74;21100;-76
2022/02/01 07:41:18;;;;;;;16.82;12.18;;;29.80;66.20;;;;;;1923465;73;21133;-77
2022/02/01 07:43:49;;;;;;;20.65;13.48;;;29.80;66.10;;;;;;1918325;74;21150;-76
2022/02/01 07:46:20;;;;;;;17.73;12.60;;;29.90;66.60;;;;;;1916938;74;21135;-75
2022/02/01 07:48:51;;;;;;;18.27;12.73;;;29.80;66.70;;;;;;1913171;74;21170;-75
2022/02/01 07:51:22;;;;;;;18.82;12.53;;;29.80;66.80;;;;;;1906102;74;21171;-75
2022/02/01 07:53:53;;;;;;;15.63;12.40;;;29.80;66.80;;;;;;1903911;75;21547;-76
2022/02/01 07:56:23;;;;;;;15.95;13.48;;;29.70;66.70;;;;;;1903864;75;21115;-77
2022/02/01 07:58:54;;;;;;;16.20;12.55;;;29.70;67.20;;;;;;1903371;75;21228;-76
2022/02/01 08:01:25;;;;;;;19.12;12.55;;;29.70;67.20;;;;;;1904994;75;21095;-76
2022/02/01 08:03:56;;;;;;;17.10;12.90;;;29.60;67.10;;;;;;1921455;73;21079;-76
2022/02/01 08:06:27;;;;;;;14.70;12.60;;;29.60;67.30;;;;;;1937112;73;21119;-77
2022/02/01 08:08:58;;;;;;;17.85;13.08;;;29.60;67.30;;;;;;1929023;74;21127;-76
2022/02/01 08:11:28;;;;;;;20.20;14.10;;;29.50;67.30;;;;;;1903510;75;21676;-74
2022/02/01 08:16:41;;;;;;;17.30;13.55;;;29.50;67.40;;;;;;1912081;75;21127;-75
2022/02/01 08:19:13;;;;;;;15.15;12.33;;;29.50;67.20;;;;;;1911283;74;21570;-75
2022/02/01 08:21:43;;;;;;;17.67;14.15;;;29.50;67.40;;;;;;1908130;75;21159;-76
2022/02/01 08:24:08;;;;;;;16.00;14.30;;;29.50;67.50;;;;;;1913733;75;21681;-76
2022/02/01 08:26:39;;;;;;;16.07;13.30;;;29.40;67.80;;;;;;1915120;75;21081;-76
2022/02/01 08:29:11;;;;;;;16.57;13.28;;;29.30;67.90;;;;;;1915692;75;21058;-76
2022/02/01 08:31:43;;;;;;;19.27;13.45;;;29.30;68.00;;;;;;1913518;74;21155;-76
2022/02/01 08:34:14;;;;;;;15.50;12.70;;;29.30;68.00;;;;;;1914504;74;21147;-75
2022/02/01 08:36:45;;;;;;;18.95;13.05;;;29.40;68.20;;;;;;1914061;75;21178;-77
2022/02/01 08:39:16;;;;;;;20.95;13.55;;;29.30;68.20;;;;;;1912621;74;21610;-75
2022/02/01 08:41:47;;;;;;;18.20;13.25;;;29.40;68.00;;;;;;1912670;74;21217;-76
2022/02/01 08:44:24;;;;;;;21.27;13.85;;;29.40;67.70;;;;;;1912283;75;21431;-75
2022/02/01 08:46:51;;;;;;;16.30;13.08;;;29.50;67.30;;;;;;1912382;74;21668;-76
2022/02/01 08:49:22;;;;;;;16.15;12.23;;;29.50;66.90;;;;;;1912383;75;21217;-75
2022/02/01 08:52:00;;;;;;;21.10;13.62;;;29.50;67.20;;;;;;1912164;75;21586;-75
2022/02/01 08:54:28;;;;;;;19.95;13.88;;;29.50;67.50;;;;;;1914741;74;21189;-76
2022/02/01 08:59:32;;;;;;;17.55;13.70;;;29.50;67.50;;;;;;1937793;73;21160;-76
2022/02/01 09:02:04;;;;;;;18.05;13.65;;;29.50;67.60;;;;;;1938752;74;21131;-75
2022/02/01 09:04:35;;;;;;;17.48;14.43;;;29.50;67.80;;;;;;1935265;74;21225;-76
2022/02/01 09:07:06;;;;;;;16.52;13.55;;;29.60;67.60;;;;;;1913303;74;21150;-75
2022/02/01 09:09:38;;;;;;;16.85;13.85;;;29.60;67.30;;;;;;1912554;75;21080;-77
2022/02/01 09:12:10;;;;;;;17.12;12.95;;;29.60;66.90;;;;;;1912577;75;21166;-76
2022/02/01 09:14:43;;;;;;;19.30;13.08;;;29.70;66.90;;;;;;1911553;75;21150;-75
2022/02/01 09:17:16;;;;;;;18.35;14.13;;;29.60;66.80;;;;;;1914737;73;21584;-76
2022/02/01 09:19:47;;;;;;;17.82;14.95;;;29.60;66.50;;;;;;1918585;73;21193;-77
2022/02/01 09:22:18;;;;;;;16.73;13.70;;;29.60;66.40;;;;;;1872935;76;21135;-76
2022/02/01 09:24:49;;;;;;;18.50;13.95;;;29.60;66.70;;;;;;1950890;73;21071;-75
2022/02/01 09:27:20;;;;;;;16.42;13.88;;;29.60;67.10;;;;;;1949784;73;21131;-75
2022/02/01 09:29:53;;;;;;;17.52;13.62;;;29.60;68.20;;;;;;1924391;74;21197;-76
2022/02/01 09:32:25;;;;;;;16.95;14.20;;;29.60;67.40;;;;;;1919826;74;21577;-77
2022/02/01 09:34:56;;;;;;;30.65;15.68;;;29.60;67.10;;;;;;1918215;73;21438;-75
2022/02/01 09:37:28;;;;;;;20.08;14.18;;;29.60;67.70;;;;;;1931226;73;21142;-75
2022/02/01 09:39:59;;;;;;;20.85;17.85;;;29.60;67.70;;;;;;1919187;74;21075;-77
2022/02/01 09:42:30;;;;;;;22.95;16.27;;;29.60;68.20;;;;;;1912509;74;21605;-75
2022/02/01 09:45:01;;;;;;;21.27;15.68;;;29.50;68.10;;;;;;1906065;74;21080;-75
2022/02/01 09:47:35;;;;;;;27.02;15.78;;;29.50;68.20;;;;;;1914597;74;21171;-76
2022/02/01 09:50:08;;;;;;;21.75;16.32;;;29.50;68.40;;;;;;1919921;73;21146;-76
2022/02/01 09:52:39;;;;;;;20.40;16.20;;;29.50;68.80;;;;;;1906489;74;21656;-79
2022/02/01 09:55:14;;;;;;;19.75;14.80;;;29.40;68.90;;;;;;1919875;73;21195;-77
2022/02/01 09:57:45;;;;;;;19.70;15.10;;;29.40;68.90;;;;;;1885101;75;21280;-76
2022/02/01 10:00:21;;;;;;;19.17;15.40;;;29.30;68.90;;;;;;1926770;74;21579;-77
2022/02/01 10:02:52;;;;;;;19.95;14.80;;;29.40;68.90;;;;;;1926216;74;21076;-77
2022/02/01 10:05:23;;;;;;;19.77;15.58;;;29.30;70.00;;;;;;1929514;74;21590;-77
2022/02/01 10:07:56;;;;;;;20.92;14.70;;;29.30;69.20;;;;;;1930999;73;21614;-76
2022/02/01 10:10:31;;;;;;;20.72;14.55;;;29.30;69.90;;;;;;1920174;73;21231;-76
2022/02/01 10:13:12;;;;;;;17.07;14.45;;;29.20;68.60;;;;;;1915200;74;21575;-77
2022/02/01 10:15:36;;;;;;;19.17;13.80;;;29.20;68.40;;;;;;1931917;74;21127;-76
2022/02/01 10:18:09;;;;;;;19.70;15.53;;;29.20;68.80;;;;;;1912900;74;21182;-76
2022/02/01 10:20:43;;;;;;;17.82;13.70;;;29.10;69.20;;;;;;1909515;74;21127;-79
2022/02/01 10:23:16;;;;;;;21.20;14.33;;;29.10;69.40;;;;;;1916336;74;21570;-79
2022/02/01 10:25:49;;;;;;;18.10;14.63;;;29.00;69.50;;;;;;1916544;73;21191;-80
2022/02/01 10:28:20;;;;;;;19.35;14.50;;;29.00;69.70;;;;;;1915056;73;21166;-80
2022/02/01 10:30:51;;;;;;;19.52;14.70;;;29.00;69.90;;;;;;1889443;73;21116;-80
2022/02/01 10:33:52;;;;;;;21.97;15.53;;;29.00;70.00;;;;;;1928302;73;21131;-79
2022/02/01 10:35:56;;;;;;;19.70;14.33;;;28.90;70.30;;;;;;1904134;74;21111;-79
2022/02/01 10:38:29;;;;;;;17.40;14.50;;;28.90;70.50;;;;;;1894263;74;21611;-80
2022/02/01 10:41:01;;;;;;;20.45;15.15;;;28.90;70.40;;;;;;1930588;73;21185;-81
2022/02/01 10:43:34;;;;;;;22.20;15.70;;;28.90;70.60;;;;;;1913871;73;21653;-81
2022/02/01 10:46:07;;;;;;;23.67;17.45;;;28.90;70.40;;;;;;1869798;76;21147;-81
2022/02/01 10:48:40;;;;;;;22.13;17.95;;;28.90;70.50;;;;;;1871620;74;21124;-81
2022/02/01 10:54:03;;;;;;;27.10;19.35;;;28.80;70.50;;;;;;1894770;74;21215;-81
2022/02/01 10:56:33;;;;;;;25.45;18.98;;;28.80;70.50;;;;;;1912938;74;21555;-81
2022/02/01 10:59:05;;;;;;;21.52;18.77;;;28.70;70.50;;;;;;1905731;73;21121;-81
2022/02/01 11:01:36;;;;;;;19.77;17.30;;;28.70;70.70;;;;;;1922204;74;21219;-81
2022/02/01 11:04:09;;;;;;;23.73;18.12;;;28.70;70.60;;;;;;1925909;73;21582;-80
2022/02/01 11:06:39;;;;;;;24.80;17.25;;;28.70;70.70;;;;;;1925693;72;21136;-79
2022/02/01 11:09:10;;;;;;;19.95;16.70;;;28.70;70.60;;;;;;1959500;73;21494;-81
2022/02/01 11:11:44;;;;;;;25.08;17.27;;;28.60;70.50;;;;;;1922004;73;21103;-81
2022/02/01 11:14:17;;;;;;;23.60;17.37;;;28.70;70.70;;;;;;1960689;73;21081;-80
2022/02/01 11:16:47;;;;;;;22.58;18.00;;;28.60;70.80;;;;;;1959091;73;21116;-81
2022/02/01 11:19:20;;;;;;;26.30;18.95;;;28.60;70.90;;;;;;1956009;73;21131;-80
2022/02/01 11:21:53;;;;;;;25.70;18.67;;;28.60;70.90;;;;;;1955364;72;21097;-80
2022/02/01 11:24:33;;;;;;;26.68;18.35;;;28.60;71.00;;;;;;1948897;72;21116;-82
2022/02/01 11:27:03;;;;;;;23.10;17.85;;;28.50;71.00;;;;;;1819766;76;21096;-81
2022/02/01 11:29:50;;;;;;;25.10;19.30;;;28.50;71.20;;;;;;1879498;73;21064;-82
2022/02/01 11:32:06;;;;;;;21.07;18.05;;;28.50;71.30;;;;;;1943908;72;22745;-79
2022/02/01 11:34:40;;;;;;;27.73;18.75;;;28.40;71.40;;;;;;1916421;73;21059;-80
2022/02/01 11:37:15;;;;;;;22.42;19.00;;;28.40;71.50;;;;;;1925034;73;21147;-80
2022/02/01 11:39:48;;;;;;;27.37;18.50;;;28.40;71.70;;;;;;1937064;72;21676;-80
2022/02/01 11:42:20;;;;;;;25.25;20.70;;;28.40;71.80;;;;;;1935936;72;21210;-80
2022/02/01 11:44:53;;;;;;;29.42;20.50;;;28.40;71.90;;;;;;1928174;74;21613;-81
2022/02/01 11:47:26;;;;;;;26.60;19.17;;;28.30;72.90;;;;;;1916528;74;21815;-80
2022/02/01 11:49:59;;;;;;;25.70;20.90;;;28.30;72.30;;;;;;1911591;74;21186;-81
2022/02/01 11:52:35;;;;;;;28.05;21.30;;;28.30;72.50;;;;;;1926396;74;21085;-79
2022/02/01 11:55:18;;;;;;;31.45;19.65;;;28.30;72.80;;;;;;1912927;74;21707;-81
2022/02/01 11:57:52;;;;;;;26.42;19.80;;;28.20;72.90;;;;;;1921363;74;21464;-80
2022/02/01 12:00:28;;;;;;;26.17;19.52;;;28.20;73.20;;;;;;1909560;73;21120;-79
2022/02/01 12:03:01;;;;;;;27.85;19.35;;;28.10;73.50;;;;;;1898741;74;21704;-80
2022/02/01 12:05:39;;;;;;;32.10;20.62;;;28.10;73.50;;;;;;1919465;74;21139;-80
2022/02/01 12:08:15;;;;;;;30.80;19.98;;;28.10;73.50;;;;;;1927592;74;21505;-80
2022/02/01 12:10:48;;;;;;;24.47;19.17;;;28.10;73.60;;;;;;1924039;74;21083;-80
2022/02/01 12:13:21;;;;;;;29.50;20.12;;;28.00;73.80;;;;;;1907662;74;21123;-80
2022/02/01 12:15:54;;;;;;;24.10;18.92;;;28.00;73.90;;;;;;1901889;75;21159;-80
2022/02/01 12:18:27;;;;;;;24.85;19.62;;;28.00;74.20;;;;;;1896336;74;21608;-81
2022/02/01 12:21:00;;;;;;;26.48;19.57;;;28.00;74.00;;;;;;1915830;74;22334;-81
2022/02/01 12:23:32;;;;;;;25.45;19.60;;;27.90;74.20;;;;;;1908649;74;21172;-80
2022/02/01 12:26:06;;;;;;;27.17;19.62;;;27.90;74.40;;;;;;1928594;74;21089;-80
2022/02/01 12:28:37;;;;;;;32.28;20.43;;;27.90;74.70;;;;;;1913607;74;21405;-80
2022/02/01 12:31:10;;;;;;;26.52;20.35;;;27.90;74.90;;;;;;1913662;74;21182;-80
2022/02/01 12:33:44;;;;;;;27.93;20.77;;;27.90;75.20;;;;;;1921089;74;21136;-81
2022/02/01 12:36:26;;;;;;;28.92;19.70;;;27.80;75.00;;;;;;1925162;74;21122;-81
2022/02/01 12:38:50;;;;;;;28.30;19.27;;;27.80;75.10;;;;;;1916822;74;21193;-79
2022/02/01 12:41:23;;;;;;;27.00;19.60;;;27.80;75.30;;;;;;1931100;74;21209;-80
2022/02/01 12:46:42;;;;;;;25.95;19.35;;;27.70;75.30;;;;;;1880937;75;21073;-81
2022/02/01 12:49:03;;;;;;;28.25;19.45;;;27.70;75.90;;;;;;1873638;76;21088;-81
2022/02/01 12:51:36;;;;;;;29.85;19.95;;;27.70;76.00;;;;;;1890970;76;21606;-80
2022/02/01 12:54:07;;;;;;;30.12;20.60;;;27.70;76.10;;;;;;1825426;77;21875;-80
2022/02/01 12:56:38;;;;;;;27.82;19.37;;;27.60;76.00;;;;;;1815168;78;21194;-80
2022/02/01 12:59:10;;;;;;;25.92;18.40;;;27.60;76.40;;;;;;1855190;77;21780;-81
2022/02/01 13:01:41;;;;;;;25.43;19.87;;;27.60;76.30;;;;;;1867720;76;21147;-81
2022/02/01 13:04:15;;;;;;;28.57;20.15;;;27.60;76.70;;;;;;1858615;76;21171;-81
2022/02/01 13:06:48;;;;;;;26.07;19.75;;;27.60;76.70;;;;;;1910899;73;21087;-81
2022/02/01 13:17:04;;;;;;;32.33;22.75;;;27.50;77.30;;;;;;1928295;74;21780;-80
2022/02/01 13:22:03;;;;;;;28.65;21.52;;;27.40;77.60;;;;;;1906306;74;21154;-81
2022/02/01 13:24:34;;;;;;;31.87;23.30;;;27.40;77.70;;;;;;1908365;74;21104;-81
2022/02/01 13:27:07;;;;;;;28.52;22.50;;;27.40;78.00;;;;;;1897900;74;21138;-81
2022/02/01 13:29:38;;;;;;;28.20;21.35;;;27.40;78.10;;;;;;1900553;74;21132;-81
2022/02/01 13:32:10;;;;;;;29.60;22.42;;;27.40;77.90;;;;;;1844664;77;21096;-81
2022/02/01 13:34:41;;;;;;;30.20;21.85;;;27.40;78.00;;;;;;1917189;74;21619;-80
2022/02/01 13:37:15;;;;;;;37.08;21.70;;;27.40;78.00;;;;;;1907409;74;21126;-81
2022/02/01 13:39:48;;;;;;;32.98;22.10;;;27.30;78.10;;;;;;1926133;74;21144;-81
2022/02/01 13:42:21;;;;;;;28.38;21.23;;;27.30;78.10;;;;;;1933627;74;21098;-81
2022/02/01 13:44:55;;;;;;;30.65;21.07;;;27.30;78.50;;;;;;1925645;74;21120;-80
2022/02/01 13:47:28;;;;;;;30.05;20.25;;;27.30;78.10;;;;;;1926342;73;21504;-80
2022/02/01 13:50:00;;;;;;;33.70;21.55;;;27.20;78.60;;;;;;1933136;73;21225;-81
2022/02/01 13:52:31;;;;;;;31.90;21.80;;;27.20;78.20;;;;;;1914731;74;21128;-81
2022/02/01 13:55:03;;;;;;;28.15;21.02;;;27.20;78.40;;;;;;1840439;76;21081;-80
2022/02/01 13:57:36;;;;;;;29.82;22.32;;;27.10;78.50;;;;;;1925309;74;21132;-82
2022/02/01 14:00:09;;;;;;;28.90;21.77;;;27.10;78.60;;;;;;1915548;74;21137;-83
2022/02/01 14:02:47;;;;;;;28.30;19.85;;;27.10;78.20;;;;;;1915693;74;21112;-81
2022/02/01 14:05:20;;;;;;;27.40;20.85;;;27.10;78.60;;;;;;1897654;75;21167;-80
2022/02/01 14:28:23;;;;;;;26.73;18.90;;;26.90;79.00;;;;;;1909296;74;21147;-81
2022/02/01 14:35:46;;;;;;;23.32;18.87;;;26.90;79.10;;;;;;1911581;74;21190;-83
2022/02/01 14:43:40;;;;;;;28.83;20.32;;;26.80;79.40;;;;;;1920279;73;21689;-83
2022/02/01 14:45:53;;;;;;;30.20;20.72;;;26.80;79.20;;;;;;1914896;73;21481;-83
2022/02/01 14:48:24;;;;;;;29.37;20.68;;;26.80;79.70;;;;;;1930528;73;21591;-83
2022/02/01 14:50:55;;;;;;;29.87;21.87;;;26.80;79.80;;;;;;1919226;73;21718;-83
2022/02/01 14:53:25;;;;;;;30.20;21.37;;;26.80;80.10;;;;;;1927108;74;21124;-84
2022/02/01 14:56:08;;;;;;;35.23;23.18;;;26.70;79.70;;;;;;1922342;74;21073;-82
2022/02/01 15:11:24;;;;;;;34.25;19.95;;;26.50;80.30;;;;;;1922929;74;21130;-81
2022/02/01 15:13:45;;;;;;;25.43;19.80;;;26.50;80.40;;;;;;1907603;74;21181;-82
2022/02/01 15:16:17;;;;;;;25.88;19.42;;;26.50;80.50;;;;;;1916692;74;21546;-81